createdAt,value
2019-05-10T00:00:57.124Z,11.09
2019-05-10T00:01:57.114Z,11.19
2019-05-10T00:02:57.149Z,11.06
2019-05-10T00:03:57.054Z,11.13
2019-05-10T00:04:57.037Z,11.19
2019-05-10T00:05:57.035Z,11.12
2019-05-10T00:06:57.022Z,11.21
2019-05-10T00:07:57.016Z,11.21
2019-05-10T00:08:57.067Z,11.19
2019-05-10T00:09:57.049Z,11.09
2019-05-10T00:10:56.981Z,11.12
2019-05-10T00:11:56.976Z,11.08
2019-05-10T00:12:56.987Z,11.11
2019-05-10T00:13:56.951Z,11.09
2019-05-10T00:14:56.960Z,11.06
2019-05-10T00:15:56.970Z,11.06
2019-05-10T00:16:56.960Z,11.12
2019-05-10T00:17:56.933Z,11.06
2019-05-10T00:18:56.900Z,11.06
2019-05-10T00:19:56.910Z,11.11
2019-05-10T00:20:56.863Z,11.11
2019-05-10T00:21:56.842Z,11.05
2019-05-10T00:22:56.841Z,11.11
2019-05-10T00:23:56.835Z,11.12
2019-05-10T00:25:04.040Z,11.16
2019-05-10T00:25:56.809Z,11.08
2019-05-10T00:26:56.826Z,11.09
2019-05-10T00:27:56.791Z,11.08
2019-05-10T00:28:57.630Z,11.05
2019-05-10T00:29:56.859Z,11.03
2019-05-10T00:30:56.784Z,11.08
2019-05-10T00:31:56.769Z,11.02
2019-05-10T00:32:56.756Z,11.02
2019-05-10T00:33:56.712Z,11.16
2019-05-10T00:34:56.733Z,11.03
2019-05-10T00:35:56.700Z,11.08
2019-05-10T00:36:56.742Z,11.02
2019-05-10T00:37:56.679Z,11.02
2019-05-10T00:38:56.695Z,11.03
2019-05-10T00:39:56.727Z,11.11
2019-05-10T00:40:56.640Z,11.09
2019-05-10T00:41:56.645Z,11.05
2019-05-10T00:42:56.636Z,11.01
2019-05-10T00:43:56.633Z,11.01
2019-05-10T00:44:56.672Z,10.93
2019-05-10T00:45:56.633Z,11.01
2019-05-10T00:46:56.600Z,11.02
2019-05-10T00:47:56.593Z,11.03
2019-05-10T00:48:56.593Z,11.06
2019-05-10T00:49:56.609Z,11.06
2019-05-10T00:50:56.577Z,11.05
2019-05-10T00:51:56.594Z,11.05
2019-05-10T00:52:56.518Z,11.12
2019-05-10T00:53:56.579Z,11.01
2019-05-10T00:54:56.517Z,11.08
2019-05-10T00:55:56.506Z,11.02
2019-05-10T00:56:56.481Z,11.03
2019-05-10T00:57:56.458Z,11.05
2019-05-10T00:58:56.460Z,11.08
2019-05-10T00:59:56.435Z,11.08
2019-05-10T01:00:56.489Z,11.01
2019-05-10T01:01:56.414Z,11.05
2019-05-10T01:04:05.619Z,11.05
2019-05-10T01:05:06.580Z,11.08
2019-05-10T01:06:06.613Z,11.11
2019-05-10T01:07:06.563Z,11.09
2019-05-10T01:08:06.549Z,11.05
2019-05-10T01:09:06.539Z,10.94
2019-05-10T01:10:06.520Z,11.13
2019-05-10T01:11:06.526Z,11.05
2019-05-10T01:12:06.507Z,11.05
2019-05-10T01:13:06.497Z,11.01
2019-05-10T01:14:06.510Z,11.06
2019-05-10T01:15:06.481Z,11.06
2019-05-10T01:16:06.492Z,11.08
2019-05-10T01:17:06.443Z,11.06
2019-05-10T01:18:06.446Z,11.08
2019-05-10T01:19:06.433Z,11.01
2019-05-10T01:20:06.428Z,11.11
2019-05-10T01:21:06.429Z,10.99
2019-05-10T01:22:06.401Z,10.98
2019-05-10T01:23:06.381Z,11.05
2019-05-10T01:24:06.390Z,10.98
2019-05-10T01:25:06.359Z,10.93
2019-05-10T01:26:06.377Z,10.99
2019-05-10T01:27:06.344Z,11.02
2019-05-10T01:28:06.437Z,10.94
2019-05-10T01:29:06.321Z,11.01
2019-05-10T01:30:06.303Z,11.01
2019-05-10T01:31:06.319Z,11.03
2019-05-10T01:32:06.305Z,11.06
2019-05-10T01:33:06.270Z,10.98
2019-05-10T01:34:06.264Z,10.91
2019-05-10T01:35:06.260Z,10.90
2019-05-10T01:36:06.255Z,10.91
2019-05-10T01:37:06.225Z,10.94
2019-05-10T01:38:06.217Z,10.94
2019-05-10T01:39:06.213Z,10.86
2019-05-10T01:40:06.200Z,10.83
2019-05-10T01:41:06.228Z,10.83
2019-05-10T01:42:06.180Z,10.86
2019-05-10T01:43:06.164Z,10.84
2019-05-10T01:44:06.146Z,10.76
2019-05-10T01:45:06.139Z,10.75
2019-05-10T01:46:06.135Z,10.78
2019-05-10T01:47:06.161Z,10.81
2019-05-10T01:48:06.114Z,10.76
2019-05-10T01:49:06.097Z,10.63
2019-05-10T01:50:06.085Z,10.81
2019-05-10T01:51:06.069Z,10.66
2019-05-10T01:52:06.089Z,10.69
2019-05-10T01:53:06.054Z,10.62
2019-05-10T01:54:06.040Z,10.62
2019-05-10T01:55:06.025Z,10.66
2019-05-10T01:56:06.023Z,10.57
2019-05-10T01:57:06.027Z,10.49
2019-05-10T01:58:06.008Z,10.49
2019-05-10T01:59:06.009Z,10.49
2019-05-10T02:00:05.992Z,10.46
2019-05-10T02:01:05.966Z,10.47
2019-05-10T02:02:05.976Z,10.34
2019-05-10T02:03:05.940Z,10.35
2019-05-10T02:04:05.945Z,10.36
2019-05-10T02:05:05.963Z,10.39
2019-05-10T02:06:05.917Z,10.31
2019-05-10T02:07:05.937Z,10.34
2019-05-10T02:08:05.907Z,10.26
2019-05-10T02:09:05.893Z,10.26
2019-05-10T02:10:05.886Z,10.31
2019-05-10T02:11:05.869Z,10.29
2019-05-10T02:12:05.893Z,10.22
2019-05-10T02:13:05.989Z,10.26
2019-05-10T02:14:05.834Z,10.17
2019-05-10T02:15:05.820Z,10.16
2019-05-10T02:16:05.798Z,10.14
2019-05-10T02:17:05.814Z,10.10
2019-05-10T02:18:05.773Z,10.06
2019-05-10T02:19:05.761Z,10.09
2019-05-10T02:20:05.751Z,10.06
2019-05-10T02:21:05.755Z,10.01
2019-05-10T02:22:05.743Z,9.99
2019-05-10T02:23:05.730Z,10.06
2019-05-10T02:24:05.716Z,10.04
2019-05-10T02:25:05.711Z,10.01
2019-05-10T02:26:09.390Z,10.02
2019-05-10T02:27:05.701Z,10.02
2019-05-10T02:28:05.673Z,9.89
2019-05-10T02:29:05.662Z,9.95
2019-05-10T02:30:05.656Z,9.88
2019-05-10T02:31:05.634Z,9.77
2019-05-10T02:32:05.646Z,9.88
2019-05-10T02:33:05.620Z,9.78
2019-05-10T02:34:05.603Z,9.77
2019-05-10T02:35:05.604Z,9.75
2019-05-10T02:36:05.582Z,9.81
2019-05-10T02:37:05.626Z,9.78
2019-05-10T02:38:05.565Z,9.74
2019-05-10T02:39:05.545Z,9.71
2019-05-10T02:40:05.540Z,9.73
2019-05-10T02:41:05.530Z,9.67
2019-05-10T02:42:05.534Z,9.75
2019-05-10T02:43:05.512Z,9.73
2019-05-10T02:44:05.489Z,9.85
2019-05-10T02:45:05.486Z,9.78
2019-05-10T02:46:05.473Z,9.81
2019-05-10T02:47:05.481Z,9.75
2019-05-10T02:48:05.455Z,9.73
2019-05-10T02:49:05.430Z,9.78
2019-05-10T02:50:05.433Z,9.83
2019-05-10T02:51:05.423Z,9.86
2019-05-10T02:52:05.429Z,9.81
2019-05-10T02:53:05.416Z,9.83
2019-05-10T02:54:05.391Z,9.89
2019-05-10T02:55:05.382Z,9.83
2019-05-10T02:56:05.364Z,9.98
2019-05-10T02:57:05.374Z,10.02
2019-05-10T02:58:05.492Z,9.95
2019-05-10T02:59:05.333Z,10.09
2019-05-10T03:00:05.314Z,10.07
2019-05-10T03:01:05.315Z,10.06
2019-05-10T03:02:05.294Z,10.04
2019-05-10T03:03:05.306Z,10.07
2019-05-10T03:05:14.497Z,10.16
2019-05-10T03:06:15.449Z,10.13
2019-05-10T03:07:15.479Z,10.17
2019-05-10T03:08:15.438Z,10.13
2019-05-10T03:09:15.430Z,10.11
2019-05-10T03:10:15.412Z,10.20
2019-05-10T03:11:15.413Z,10.26
2019-05-10T03:12:15.418Z,10.25
2019-05-10T03:13:15.378Z,10.16
2019-05-10T03:14:15.367Z,10.14
2019-05-10T03:15:15.357Z,10.17
2019-05-10T03:16:15.362Z,10.22
2019-05-10T03:17:15.352Z,10.11
2019-05-10T03:18:15.355Z,10.11
2019-05-10T03:19:15.308Z,10.11
2019-05-10T03:20:15.326Z,10.13
2019-05-10T03:21:15.291Z,10.17
2019-05-10T03:22:15.296Z,10.17
2019-05-10T03:23:15.298Z,10.13
2019-05-10T03:24:15.261Z,10.14
2019-05-10T03:25:15.250Z,10.17
2019-05-10T03:26:15.249Z,10.13
2019-05-10T03:27:15.222Z,10.13
2019-05-10T03:28:15.245Z,10.17
2019-05-10T03:29:15.209Z,10.16
2019-05-10T03:30:15.203Z,10.17
2019-05-10T03:31:15.225Z,10.17
2019-05-10T03:32:15.175Z,10.11
2019-05-10T03:33:15.213Z,10.14
2019-05-10T03:34:15.149Z,10.13
2019-05-10T03:35:15.142Z,10.16
2019-05-10T03:36:15.157Z,10.01
2019-05-10T03:37:15.125Z,10.07
2019-05-10T03:38:15.122Z,9.99
2019-05-10T03:39:15.099Z,10.07
2019-05-10T03:40:15.092Z,10.02
2019-05-10T03:41:15.071Z,10.16
2019-05-10T03:42:15.088Z,10.11
2019-05-10T03:43:15.054Z,10.13
2019-05-10T03:44:15.064Z,10.09
2019-05-10T03:45:15.029Z,10.14
2019-05-10T03:46:15.012Z,10.02
2019-05-10T03:47:15.007Z,10.10
2019-05-10T03:48:14.996Z,10.09
2019-05-10T03:49:15.017Z,10.13
2019-05-10T03:50:14.973Z,10.13
2019-05-10T03:51:14.969Z,10.13
2019-05-10T03:52:14.957Z,10.11
2019-05-10T03:53:14.946Z,10.17
2019-05-10T03:54:14.955Z,10.11
2019-05-10T03:55:14.920Z,10.17
2019-05-10T03:56:14.912Z,10.11
2019-05-10T03:57:15.267Z,10.04
2019-05-10T03:58:14.895Z,9.98
2019-05-10T03:59:14.891Z,9.99
2019-05-10T04:00:14.928Z,9.99
2019-05-10T04:01:14.857Z,9.93
2019-05-10T04:02:14.835Z,10.02
2019-05-10T04:03:14.842Z,9.93
2019-05-10T04:04:14.850Z,9.93
2019-05-10T04:05:14.810Z,9.92
2019-05-10T04:06:14.799Z,9.98
2019-05-10T04:07:14.827Z,10.01
2019-05-10T04:08:14.777Z,9.93
2019-05-10T04:09:14.776Z,9.89
2019-05-10T04:10:14.762Z,9.99
2019-05-10T04:11:14.752Z,10.01
2019-05-10T04:12:14.730Z,9.93
2019-05-10T04:13:14.725Z,9.95
2019-05-10T04:14:14.734Z,9.86
2019-05-10T04:15:14.703Z,9.92
2019-05-10T04:16:14.692Z,9.85
2019-05-10T04:17:14.679Z,9.85
2019-05-10T04:18:14.676Z,9.95
2019-05-10T04:19:14.678Z,9.85
2019-05-10T04:20:14.646Z,9.78
2019-05-10T04:21:14.640Z,9.92
2019-05-10T04:22:14.626Z,9.86
2019-05-10T04:23:14.630Z,9.98
2019-05-10T04:24:14.628Z,9.92
2019-05-10T04:25:14.605Z,9.88
2019-05-10T04:26:14.587Z,9.85
2019-05-10T04:27:30.723Z,9.95
2019-05-10T04:28:14.573Z,9.99
2019-05-10T04:29:14.569Z,9.95
2019-05-10T04:30:14.542Z,9.92
2019-05-10T04:31:14.577Z,9.96
2019-05-10T04:32:14.517Z,9.91
2019-05-10T04:33:14.510Z,9.99
2019-05-10T04:34:14.566Z,9.96
2019-05-10T04:35:14.528Z,9.91
2019-05-10T04:36:14.500Z,9.91
2019-05-10T04:37:14.461Z,9.89
2019-05-10T04:38:14.448Z,9.95
2019-05-10T04:39:14.438Z,9.91
2019-05-10T04:40:14.438Z,10.07
2019-05-10T04:41:14.454Z,9.91
2019-05-10T04:42:14.410Z,9.99
2019-05-10T04:43:14.430Z,9.96
2019-05-10T04:44:14.415Z,9.99
2019-05-10T04:45:14.400Z,9.96
2019-05-10T04:46:14.387Z,9.99
2019-05-10T04:47:14.350Z,10.09
2019-05-10T04:48:14.346Z,10.09
2019-05-10T04:49:14.331Z,9.99
2019-05-10T04:50:14.316Z,10.01
2019-05-10T04:51:14.336Z,10.02
2019-05-10T04:52:14.303Z,10.04
2019-05-10T04:53:14.297Z,10.04
2019-05-10T04:54:14.314Z,10.06
2019-05-10T04:55:14.272Z,10.04
2019-05-10T04:56:14.306Z,10.04
2019-05-10T04:57:14.237Z,9.99
2019-05-10T04:58:14.236Z,10.02
2019-05-10T04:59:14.220Z,10.09
2019-05-10T05:00:14.229Z,10.01
2019-05-10T05:01:14.227Z,10.04
2019-05-10T05:02:14.225Z,10.02
2019-05-10T05:03:14.171Z,10.10
2019-05-10T05:04:14.183Z,10.02
2019-05-10T05:06:23.372Z,10.14
2019-05-10T05:07:24.338Z,10.14
2019-05-10T05:08:24.325Z,10.16
2019-05-10T05:09:24.309Z,10.13
2019-05-10T05:10:24.295Z,10.11
2019-05-10T05:11:24.298Z,10.18
2019-05-10T05:12:24.291Z,10.13
2019-05-10T05:13:24.277Z,10.11
2019-05-10T05:14:24.262Z,10.13
2019-05-10T05:15:24.245Z,10.22
2019-05-10T05:16:24.261Z,10.20
2019-05-10T05:17:24.242Z,10.24
2019-05-10T05:18:24.214Z,10.29
2019-05-10T05:19:24.212Z,10.29
2019-05-10T05:20:24.191Z,10.31
2019-05-10T05:21:24.201Z,10.29
2019-05-10T05:22:24.188Z,10.36
2019-05-10T05:23:24.172Z,10.34
2019-05-10T05:24:24.533Z,10.29
2019-05-10T05:25:24.137Z,10.34
2019-05-10T05:26:24.124Z,10.32
2019-05-10T05:27:24.133Z,10.36
2019-05-10T05:28:24.696Z,10.31
2019-05-10T05:29:24.104Z,10.42
2019-05-10T05:30:24.078Z,10.31
2019-05-10T05:31:24.063Z,10.39
2019-05-10T05:32:24.072Z,10.38
2019-05-10T05:33:24.053Z,10.49
2019-05-10T05:34:24.046Z,10.39
2019-05-10T05:35:24.032Z,10.35
2019-05-10T05:36:24.009Z,10.36
2019-05-10T05:37:24.021Z,10.44
2019-05-10T05:38:24.000Z,10.44
2019-05-10T05:39:23.980Z,10.32
2019-05-10T05:40:23.979Z,10.55
2019-05-10T05:41:23.982Z,10.52
2019-05-10T05:42:27.885Z,10.47
2019-05-10T05:43:23.955Z,10.44
2019-05-10T05:44:26.100Z,10.47
2019-05-10T05:45:28.246Z,10.51
2019-05-10T05:46:23.898Z,10.42
2019-05-10T05:47:23.921Z,10.49
2019-05-10T05:48:32.412Z,10.52
2019-05-10T05:49:23.880Z,10.51
2019-05-10T05:50:23.872Z,10.58
2019-05-10T05:51:23.875Z,10.52
2019-05-10T05:52:23.875Z,10.52
2019-05-10T05:53:23.900Z,10.60
2019-05-10T05:54:30.787Z,10.66
2019-05-10T05:55:24.167Z,10.66
2019-05-10T05:56:23.802Z,10.54
2019-05-10T05:57:27.628Z,10.62
2019-05-10T05:58:27.208Z,10.58
2019-05-10T05:59:26.156Z,10.62
2019-05-10T06:00:23.752Z,10.66
2019-05-10T06:01:28.896Z,10.60
2019-05-10T06:02:23.735Z,10.65
2019-05-10T06:03:27.461Z,10.60
2019-05-10T06:04:23.860Z,10.60
2019-05-10T06:05:33.979Z,10.66
2019-05-10T06:06:23.770Z,10.65
2019-05-10T06:07:23.692Z,10.76
2019-05-10T06:08:25.125Z,10.68
2019-05-10T06:09:23.660Z,10.63
2019-05-10T06:10:23.652Z,10.68
2019-05-10T06:11:23.628Z,10.62
2019-05-10T06:12:23.640Z,10.60
2019-05-10T06:13:30.461Z,10.58
2019-05-10T06:14:23.602Z,10.65
2019-05-10T06:15:28.935Z,10.58
2019-05-10T06:16:23.582Z,10.63
2019-05-10T06:17:28.876Z,10.58
2019-05-10T06:18:23.572Z,10.52
2019-05-10T06:19:29.332Z,10.51
2019-05-10T06:20:23.540Z,10.58
2019-05-10T06:21:26.418Z,10.44
2019-05-10T06:22:23.531Z,10.43
2019-05-10T06:23:23.549Z,10.54
2019-05-10T06:24:23.513Z,10.51
2019-05-10T06:25:37.902Z,10.46
2019-05-10T06:26:28.425Z,10.51
2019-05-10T06:27:23.641Z,10.57
2019-05-10T06:28:28.668Z,10.51
2019-05-10T06:29:24.164Z,10.54
2019-05-10T06:30:23.629Z,10.57
2019-05-10T06:31:23.418Z,10.52
2019-05-10T06:32:23.400Z,10.63
2019-05-10T06:33:24.442Z,10.65
2019-05-10T06:34:23.400Z,10.75
2019-05-10T06:35:23.399Z,10.63
2019-05-10T06:36:23.362Z,10.65
2019-05-10T06:37:23.352Z,10.78
2019-05-10T06:38:23.345Z,10.69
2019-05-10T06:39:23.333Z,10.78
2019-05-10T06:40:33.480Z,10.63
2019-05-10T06:41:23.309Z,10.66
2019-05-10T06:42:23.285Z,10.75
2019-05-10T06:43:23.288Z,10.73
2019-05-10T06:44:24.905Z,10.69
2019-05-10T06:45:23.254Z,10.83
2019-05-10T06:46:23.703Z,10.72
2019-05-10T06:47:23.312Z,10.76
2019-05-10T06:48:27.504Z,10.83
2019-05-10T06:49:24.140Z,10.80
2019-05-10T06:50:29.975Z,10.84
2019-05-10T06:51:23.191Z,10.84
2019-05-10T06:52:27.670Z,10.91
2019-05-10T06:53:23.562Z,10.95
2019-05-10T06:54:23.200Z,10.93
2019-05-10T06:55:23.138Z,10.99
2019-05-10T06:56:23.132Z,11.03
2019-05-10T06:57:23.125Z,11.05
2019-05-10T06:58:23.113Z,11.16
2019-05-10T06:59:24.825Z,11.12
2019-05-10T07:00:23.120Z,11.13
2019-05-10T07:01:23.089Z,11.17
2019-05-10T07:02:26.530Z,11.17
2019-05-10T07:03:23.333Z,11.13
2019-05-10T07:04:23.084Z,11.19
2019-05-10T07:05:23.042Z,11.21
2019-05-10T07:07:43.674Z,11.23
2019-05-10T07:08:43.817Z,11.24
2019-05-10T07:10:00.570Z,11.17
2019-05-10T07:10:34.369Z,11.19
2019-05-10T07:11:34.336Z,11.23
2019-05-10T07:12:34.331Z,11.17
2019-05-10T07:13:34.289Z,11.17
2019-05-10T07:14:34.348Z,11.26
2019-05-10T07:15:35.624Z,11.27
2019-05-10T07:16:34.260Z,11.31
2019-05-10T07:17:40.727Z,11.20
2019-05-10T07:18:34.246Z,11.26
2019-05-10T07:19:34.846Z,11.27
2019-05-10T07:20:34.246Z,11.13
2019-05-10T07:21:39.031Z,11.21
2019-05-10T07:22:34.189Z,11.26
2019-05-10T07:23:39.184Z,11.20
2019-05-10T07:24:34.185Z,11.26
2019-05-10T07:25:37.633Z,11.16
2019-05-10T07:26:34.172Z,11.31
2019-05-10T07:27:36.609Z,11.31
2019-05-10T07:28:34.127Z,11.27
2019-05-10T07:29:41.763Z,11.33
2019-05-10T07:30:34.135Z,11.33
2019-05-10T07:31:34.099Z,11.36
2019-05-10T07:32:34.106Z,11.39
2019-05-10T07:33:37.201Z,11.51
2019-05-10T07:34:34.061Z,11.51
2019-05-10T07:35:36.878Z,11.56
2019-05-10T07:36:34.074Z,11.56
2019-05-10T07:37:34.963Z,11.56
2019-05-10T07:38:34.058Z,11.56
2019-05-10T07:39:34.093Z,11.49
2019-05-10T07:40:34.025Z,11.49
2019-05-10T07:41:34.042Z,11.62
2019-05-10T07:42:34.148Z,11.51
2019-05-10T07:43:33.959Z,11.54
2019-05-10T07:44:34.007Z,11.67
2019-05-10T07:45:34.028Z,11.67
2019-05-10T07:46:33.988Z,11.66
2019-05-10T07:47:34.020Z,11.54
2019-05-10T07:48:33.940Z,11.69
2019-05-10T07:49:33.895Z,11.75
2019-05-10T07:50:33.922Z,11.63
2019-05-10T07:51:33.881Z,11.78
2019-05-10T07:52:36.476Z,11.57
2019-05-10T07:53:33.856Z,11.57
2019-05-10T07:54:37.429Z,11.72
2019-05-10T07:55:34.008Z,11.63
2019-05-10T07:56:38.869Z,11.67
2019-05-10T07:57:33.965Z,11.75
2019-05-10T07:58:38.257Z,11.69
2019-05-10T07:59:49.594Z,11.88
2019-05-10T08:00:38.169Z,11.85
2019-05-10T08:01:34.880Z,11.78
2019-05-10T08:02:35.497Z,11.78
2019-05-10T08:03:35.525Z,11.77
2019-05-10T08:04:35.575Z,11.70
2019-05-10T08:05:33.814Z,11.62
2019-05-10T08:06:43.600Z,11.67
2019-05-10T08:07:33.875Z,11.69
2019-05-10T08:08:33.815Z,11.66
2019-05-10T08:09:37.192Z,11.82
2019-05-10T08:10:33.907Z,11.79
2019-05-10T08:11:33.703Z,11.90
2019-05-10T08:12:35.271Z,11.96
2019-05-10T08:13:33.715Z,12.13
2019-05-10T08:14:34.472Z,12.22
2019-05-10T08:15:34.970Z,12.11
2019-05-10T08:16:33.639Z,12.08
2019-05-10T08:17:35.349Z,12.13
2019-05-10T08:18:33.600Z,12.11
2019-05-10T08:19:37.706Z,12.08
2019-05-10T08:20:46.553Z,12.05
2019-05-10T08:21:33.581Z,12.04
2019-05-10T08:22:41.262Z,12.12
2019-05-10T08:23:33.526Z,12.08
2019-05-10T08:24:35.437Z,12.22
2019-05-10T08:25:39.562Z,12.23
2019-05-10T08:26:33.534Z,12.29
2019-05-10T08:27:33.515Z,12.22
2019-05-10T08:28:37.356Z,12.13
2019-05-10T08:29:33.509Z,12.11
2019-05-10T08:30:33.457Z,12.15
2019-05-10T08:31:40.336Z,12.12
2019-05-10T08:32:34.973Z,12.07
2019-05-10T08:33:33.413Z,12.13
2019-05-10T08:34:35.685Z,12.22
2019-05-10T08:35:35.872Z,12.11
2019-05-10T08:36:37.351Z,12.15
2019-05-10T08:37:37.605Z,12.11
2019-05-10T08:38:33.446Z,12.08
2019-05-10T08:39:44.183Z,12.11
2019-05-10T08:40:37.399Z,12.19
2019-05-10T08:41:33.371Z,12.13
2019-05-10T08:42:44.410Z,12.03
2019-05-10T08:43:38.798Z,11.97
2019-05-10T08:44:33.967Z,11.78
2019-05-10T08:45:33.299Z,11.88
2019-05-10T08:46:40.943Z,11.93
2019-05-10T08:47:33.260Z,11.94
2019-05-10T08:48:37.972Z,12.00
2019-05-10T08:49:44.314Z,11.87
2019-05-10T08:50:48.781Z,11.75
2019-05-10T08:51:34.532Z,11.90
2019-05-10T08:52:34.048Z,11.90
2019-05-10T08:53:33.194Z,11.98
2019-05-10T08:54:33.194Z,12.00
2019-05-10T08:55:33.168Z,11.94
2019-05-10T08:56:33.516Z,11.79
2019-05-10T08:57:34.798Z,11.82
2019-05-10T08:58:37.072Z,11.64
2019-05-10T08:59:33.970Z,11.69
2019-05-10T09:00:45.014Z,11.59
2019-05-10T09:01:44.459Z,11.72
2019-05-10T09:02:33.139Z,11.63
2019-05-10T09:03:33.109Z,11.77
2019-05-10T09:04:43.731Z,11.75
2019-05-10T09:05:34.021Z,11.85
2019-05-10T09:06:33.049Z,12.00
2019-05-10T09:08:44.035Z,12.04
2019-05-10T09:09:49.721Z,12.13
2019-05-10T09:10:44.680Z,12.11
2019-05-10T09:11:44.686Z,12.03
2019-05-10T09:12:51.076Z,12.23
2019-05-10T09:13:46.223Z,12.40
2019-05-10T09:14:44.623Z,12.36
2019-05-10T09:15:51.689Z,12.55
2019-05-10T09:16:56.261Z,12.38
2019-05-10T09:17:44.629Z,12.66
2019-05-10T09:18:50.305Z,12.73
2019-05-10T09:19:44.571Z,12.81
2019-05-10T09:20:44.562Z,12.73
2019-05-10T09:21:50.025Z,12.69
2019-05-10T09:22:44.547Z,12.66
2019-05-10T09:23:44.611Z,12.70
2019-05-10T09:24:48.465Z,12.69
2019-05-10T09:25:44.591Z,12.81
2019-05-10T09:26:47.045Z,12.98
2019-05-10T09:27:44.512Z,13.19
2019-05-10T09:28:47.476Z,13.36
2019-05-10T09:29:44.456Z,13.50
2019-05-10T09:30:56.883Z,13.90
2019-05-10T09:31:48.896Z,14.11
2019-05-10T09:32:45.365Z,14.13
2019-05-10T09:33:49.576Z,14.19
2019-05-10T09:34:44.404Z,14.04
2019-05-10T09:35:51.373Z,13.81
2019-05-10T09:36:46.983Z,13.66
2019-05-10T09:37:47.796Z,13.46
2019-05-10T09:38:46.329Z,13.47
2019-05-10T09:39:44.467Z,13.28
2019-05-10T09:40:51.383Z,13.31
2019-05-10T09:41:44.713Z,13.38
2019-05-10T09:42:44.330Z,13.25
2019-05-10T09:43:49.179Z,13.03
2019-05-10T09:44:45.921Z,12.88
2019-05-10T09:45:44.274Z,12.80
2019-05-10T09:46:44.292Z,12.84
2019-05-10T09:47:44.299Z,12.81
2019-05-10T09:48:45.049Z,12.91
2019-05-10T09:49:52.492Z,12.88
2019-05-10T09:50:47.111Z,12.99
2019-05-10T09:51:44.201Z,12.84
2019-05-10T09:52:44.219Z,12.91
2019-05-10T09:53:44.512Z,12.87
2019-05-10T09:54:44.180Z,13.03
2019-05-10T09:55:45.701Z,12.98
2019-05-10T09:56:45.827Z,13.24
2019-05-10T09:57:44.165Z,13.38
2019-05-10T09:58:44.497Z,13.36
2019-05-10T09:59:44.123Z,13.57
2019-05-10T10:00:44.105Z,13.46
2019-05-10T10:01:44.094Z,13.38
2019-05-10T10:02:47.679Z,13.47
2019-05-10T10:03:44.996Z,13.35
2019-05-10T10:04:44.055Z,13.27
2019-05-10T10:05:44.055Z,13.22
2019-05-10T10:06:48.070Z,13.28
2019-05-10T10:07:44.032Z,13.28
2019-05-10T10:08:51.263Z,13.36
2019-05-10T10:09:45.095Z,13.44
2019-05-10T10:10:44.018Z,13.48
2019-05-10T10:11:48.564Z,13.47
2019-05-10T10:12:43.986Z,13.29
2019-05-10T10:13:48.907Z,13.43
2019-05-10T10:14:43.951Z,13.44
2019-05-10T10:15:46.893Z,13.48
2019-05-10T10:16:49.375Z,13.36
2019-05-10T10:17:43.910Z,13.51
2019-05-10T10:18:43.942Z,13.36
2019-05-10T10:19:43.921Z,13.27
2019-05-10T10:20:45.439Z,13.12
2019-05-10T10:21:43.875Z,13.09
2019-05-10T10:22:52.673Z,13.24
2019-05-10T10:23:43.894Z,13.13
2019-05-10T10:24:48.975Z,13.32
2019-05-10T10:25:43.838Z,13.28
2019-05-10T10:26:43.826Z,13.29
2019-05-10T10:27:43.835Z,13.25
2019-05-10T10:28:44.552Z,13.32
2019-05-10T10:29:43.786Z,13.25
2019-05-10T10:30:43.837Z,13.24
2019-05-10T10:31:51.388Z,13.38
2019-05-10T10:32:44.623Z,13.50
2019-05-10T10:33:54.920Z,13.59
2019-05-10T10:34:43.723Z,13.69
2019-05-10T10:35:43.740Z,13.43
2019-05-10T10:36:44.187Z,13.35
2019-05-10T10:37:43.702Z,13.47
2019-05-10T10:38:45.642Z,13.19
2019-05-10T10:39:43.688Z,13.12
2019-05-10T10:40:44.915Z,12.92
2019-05-10T10:41:43.852Z,12.92
2019-05-10T10:42:43.642Z,12.89
2019-05-10T10:43:43.627Z,13.31
2019-05-10T10:44:43.642Z,13.72
2019-05-10T10:45:43.606Z,14.02
2019-05-10T10:46:43.630Z,13.94
2019-05-10T10:47:43.601Z,13.84
2019-05-10T10:48:48.912Z,13.87
2019-05-10T10:49:43.579Z,13.83
2019-05-10T10:50:44.155Z,13.91
2019-05-10T10:51:43.543Z,13.73
2019-05-10T10:52:43.523Z,13.59
2019-05-10T10:53:43.521Z,13.48
2019-05-10T10:54:43.584Z,13.43
2019-05-10T10:55:48.417Z,13.55
2019-05-10T10:56:43.487Z,13.43
2019-05-10T10:57:43.484Z,13.39
2019-05-10T10:58:43.463Z,13.47
2019-05-10T10:59:43.488Z,13.62
2019-05-10T11:00:43.451Z,13.66
2019-05-10T11:01:49.938Z,13.68
2019-05-10T11:02:46.857Z,13.86
2019-05-10T11:03:43.406Z,13.98
2019-05-10T11:04:46.600Z,13.99
2019-05-10T11:05:43.381Z,13.55
2019-05-10T11:06:43.379Z,13.59
2019-05-10T11:07:47.280Z,13.76
2019-05-10T11:09:53.890Z,14.21
2019-05-10T11:10:53.563Z,14.52
2019-05-10T11:11:53.550Z,14.60
2019-05-10T11:12:56.253Z,14.67
2019-05-10T11:14:02.156Z,14.75
2019-05-10T11:14:53.739Z,14.83
2019-05-10T11:15:53.525Z,14.95
2019-05-10T11:16:57.104Z,15.11
2019-05-10T11:17:53.488Z,14.66
2019-05-10T11:18:53.464Z,14.01
2019-05-10T11:19:53.479Z,13.99
2019-05-10T11:20:54.167Z,14.06
2019-05-10T11:21:53.427Z,13.75
2019-05-10T11:22:53.593Z,13.93
2019-05-10T11:23:53.433Z,14.08
2019-05-10T11:25:03.097Z,13.73
2019-05-10T11:25:56.418Z,13.76
2019-05-10T11:26:53.421Z,13.91
2019-05-10T11:27:58.366Z,14.04
2019-05-10T11:28:53.351Z,14.29
2019-05-10T11:29:55.213Z,14.60
2019-05-10T11:30:53.346Z,14.74
2019-05-10T11:32:11.051Z,14.56
2019-05-10T11:32:53.314Z,14.42
2019-05-10T11:33:58.437Z,14.44
2019-05-10T11:34:53.311Z,14.29
2019-05-10T11:35:57.574Z,14.42
2019-05-10T11:36:53.276Z,14.06
2019-05-10T11:37:53.281Z,13.98
2019-05-10T11:38:58.560Z,14.19
2019-05-10T11:39:53.263Z,14.26
2019-05-10T11:40:53.232Z,14.35
2019-05-10T11:42:02.161Z,14.39
2019-05-10T11:42:53.222Z,14.57
2019-05-10T11:43:57.987Z,14.80
2019-05-10T11:44:54.675Z,14.75
2019-05-10T11:45:53.176Z,14.39
2019-05-10T11:46:53.156Z,14.57
2019-05-10T11:47:58.747Z,14.41
2019-05-10T11:48:53.141Z,14.53
2019-05-10T11:49:53.161Z,14.79
2019-05-10T11:50:53.121Z,14.98
2019-05-10T11:51:54.752Z,15.22
2019-05-10T11:52:53.102Z,15.18
2019-05-10T11:53:55.585Z,14.82
2019-05-10T11:54:53.091Z,14.75
2019-05-10T11:55:53.064Z,14.67
2019-05-10T11:56:58.456Z,14.42
2019-05-10T11:58:01.964Z,14.17
2019-05-10T11:58:55.554Z,14.17
2019-05-10T11:59:53.030Z,14.24
2019-05-10T12:00:59.435Z,14.31
2019-05-10T12:01:57.955Z,14.06
2019-05-10T12:03:07.503Z,13.90
2019-05-10T12:03:52.975Z,14.02
2019-05-10T12:04:53.062Z,14.20
2019-05-10T12:06:04.564Z,14.20
2019-05-10T12:06:52.942Z,14.11
2019-05-10T12:07:54.830Z,14.35
2019-05-10T12:10:03.101Z,14.75
2019-05-10T12:11:03.929Z,14.82
2019-05-10T12:11:56.445Z,14.86
2019-05-10T12:13:08.243Z,14.87
2019-05-10T12:13:57.371Z,14.97
2019-05-10T12:14:54.077Z,15.07
2019-05-10T12:15:52.861Z,14.91
2019-05-10T12:16:54.542Z,14.86
2019-05-10T12:17:59.003Z,14.83
2019-05-10T12:19:19.531Z,14.46
2019-05-10T12:19:56.254Z,14.38
2019-05-10T12:21:03.865Z,14.36
2019-05-10T12:21:55.999Z,14.45
2019-05-10T12:22:52.757Z,14.36
2019-05-10T12:23:56.295Z,14.42
2019-05-10T12:25:16.973Z,14.38
2019-05-10T12:26:18.652Z,14.57
2019-05-10T12:26:50.470Z,14.54
2019-05-10T12:27:20.990Z,14.61
2019-05-10T12:27:52.769Z,14.52
2019-05-10T12:28:52.691Z,14.36
2019-05-10T12:29:59.571Z,14.49
2019-05-10T12:30:52.679Z,14.59
2019-05-10T12:31:56.907Z,14.60
2019-05-10T12:32:56.215Z,14.64
2019-05-10T12:33:52.640Z,14.46
2019-05-10T12:34:56.509Z,14.54
2019-05-10T12:35:52.637Z,14.54
2019-05-10T12:36:52.607Z,14.82
2019-05-10T12:37:54.269Z,14.91
2019-05-10T12:38:52.590Z,15.18
2019-05-10T12:39:53.223Z,15.18
2019-05-10T12:40:52.573Z,15.16
2019-05-10T12:41:53.146Z,15.03
2019-05-10T12:42:52.542Z,15.11
2019-05-10T12:44:02.799Z,14.97
2019-05-10T12:44:55.423Z,14.80
2019-05-10T12:45:52.537Z,14.46
2019-05-10T12:46:54.218Z,14.46
2019-05-10T12:47:52.477Z,14.57
2019-05-10T12:48:52.473Z,14.57
2019-05-10T12:49:56.145Z,14.66
2019-05-10T12:50:58.089Z,14.54
2019-05-10T12:51:52.442Z,14.52
2019-05-10T12:53:03.178Z,14.46
2019-05-10T12:53:52.419Z,14.57
2019-05-10T12:54:52.411Z,14.87
2019-05-10T12:55:52.858Z,14.54
2019-05-10T12:56:52.382Z,14.44
2019-05-10T12:57:52.380Z,14.34
2019-05-10T12:58:57.963Z,14.52
2019-05-10T12:59:52.353Z,14.67
2019-05-10T13:00:54.499Z,14.91
2019-05-10T13:01:52.331Z,14.98
2019-05-10T13:02:53.456Z,14.86